Time;durP1;ratioP1;P1;durP2;ratioP2;P2;SDS_P1;SDS_P2;PMS_P1;PMS_P2;Temp;Humidity;BMP_temperature;BMP_pressure;BME280_temperature;BME280_humidity;BME280_pressure;Samples;Min_cycle;Max_cycle;Signal;HPM_P1;HPM_P2
2021/09/23 00:01:11;;;;;;;45.33;29.83;;;13.10;99.90;;;;;;5080792;28;20105;-64
2021/09/23 00:06:02;;;;;;;42.55;31.63;;;13.10;99.90;;;;;;5098091;28;20048;-64
2021/09/23 00:08:28;;;;;;;47.65;30.23;;;13.10;99.90;;;;;;5098553;28;20040;-65
2021/09/23 00:10:54;;;;;;;49.45;31.35;;;13.00;99.90;;;;;;5097737;28;20046;-64
2021/09/23 00:13:20;;;;;;;55.80;34.95;;;13.00;99.90;;;;;;5076423;28;20039;-64
2021/09/23 00:15:46;;;;;;;51.65;31.60;;;13.00;99.90;;;;;;5082200;28;20048;-64
2021/09/23 00:18:16;;;;;;;48.13;32.33;;;13.00;99.90;;;;;;5098197;28;20032;-64
2021/09/23 00:20:46;;;;;;;48.63;34.42;;;12.90;99.90;;;;;;5097202;28;20153;-64
2021/09/23 00:23:13;;;;;;;52.10;34.10;;;12.90;99.90;;;;;;5095340;28;20032;-64
2021/09/23 00:25:39;;;;;;;48.97;33.53;;;12.90;99.90;;;;;;5074052;28;20055;-64
2021/09/23 00:28:06;;;;;;;56.15;37.15;;;12.90;99.90;;;;;;5071924;28;20436;-65
2021/09/23 00:30:33;;;;;;;51.88;35.92;;;12.90;99.90;;;;;;5090431;28;20056;-65
2021/09/23 00:32:59;;;;;;;52.85;34.40;;;12.90;99.90;;;;;;5097143;28;20049;-63
2021/09/23 00:35:25;;;;;;;53.85;35.72;;;12.90;99.90;;;;;;5090014;28;20036;-63
2021/09/23 00:37:51;;;;;;;50.67;34.40;;;12.90;99.90;;;;;;5086107;28;20488;-65
2021/09/23 00:40:18;;;;;;;55.28;35.67;;;12.80;99.90;;;;;;5087715;28;20051;-65
2021/09/23 00:42:49;;;;;;;54.20;35.45;;;12.90;99.90;;;;;;5086778;28;20450;-65
2021/09/23 00:45:18;;;;;;;51.78;36.28;;;12.90;99.90;;;;;;5074435;28;20093;-65
2021/09/23 00:47:44;;;;;;;54.45;35.25;;;12.90;99.90;;;;;;5087268;28;20048;-65
2021/09/23 00:50:11;;;;;;;53.20;37.65;;;13.00;99.90;;;;;;5086530;28;20052;-65
2021/09/23 00:52:38;;;;;;;53.30;35.95;;;12.90;99.90;;;;;;5086354;28;20040;-65
2021/09/23 00:55:05;;;;;;;50.75;35.03;;;12.90;99.90;;;;;;5094550;28;20036;-65
2021/09/23 00:57:31;;;;;;;56.75;34.75;;;12.90;99.90;;;;;;5097332;28;20045;-65
2021/09/23 00:59:57;;;;;;;54.05;34.53;;;12.90;99.90;;;;;;5087205;28;20113;-65
2021/09/23 01:02:23;;;;;;;55.97;35.75;;;12.80;99.90;;;;;;5086891;28;20044;-64
2021/09/23 01:04:49;;;;;;;53.47;35.53;;;12.80;99.90;;;;;;5092530;28;20047;-65
2021/09/23 01:07:17;;;;;;;50.25;35.42;;;12.80;99.90;;;;;;5088604;28;20029;-64
2021/09/23 01:09:49;;;;;;;50.58;34.13;;;12.80;99.90;;;;;;5086975;28;20048;-65
2021/09/23 01:12:16;;;;;;;48.50;35.28;;;12.80;99.90;;;;;;5091224;28;20056;-65
2021/09/23 01:14:42;;;;;;;48.88;33.47;;;12.80;99.90;;;;;;5099290;28;20039;-64
2021/09/23 01:17:08;;;;;;;47.38;33.83;;;12.80;99.90;;;;;;5091606;28;20151;-65
2021/09/23 01:19:34;;;;;;;50.58;32.70;;;12.80;99.90;;;;;;5093518;28;20047;-65
2021/09/23 01:22:00;;;;;;;54.08;34.15;;;12.90;99.90;;;;;;5102806;28;20062;-65
2021/09/23 01:24:26;;;;;;;46.22;32.85;;;12.80;99.90;;;;;;5090834;28;20032;-65
2021/09/23 01:26:55;;;;;;;48.75;33.33;;;12.80;99.90;;;;;;5096236;28;20082;-65
2021/09/23 01:29:22;;;;;;;46.60;33.28;;;12.80;99.90;;;;;;5086287;28;20073;-65
2021/09/23 01:31:47;;;;;;;47.88;32.50;;;12.70;99.90;;;;;;5091488;28;20147;-64
2021/09/23 01:34:13;;;;;;;52.47;33.67;;;12.80;99.90;;;;;;5103356;28;20500;-65
2021/09/23 01:36:40;;;;;;;53.60;34.35;;;12.80;99.90;;;;;;5097925;28;20039;-65
2021/09/23 01:39:05;;;;;;;54.40;34.33;;;12.80;99.90;;;;;;5097925;28;20575;-65
2021/09/23 01:41:31;;;;;;;48.58;32.47;;;12.80;99.90;;;;;;5100783;28;20040;-65
2021/09/23 01:43:57;;;;;;;51.67;32.63;;;12.80;99.90;;;;;;5089805;28;20504;-65
2021/09/23 01:46:23;;;;;;;56.85;35.53;;;12.70;99.90;;;;;;5096112;28;20454;-64
2021/09/23 01:48:48;;;;;;;58.42;35.58;;;12.70;99.90;;;;;;5086401;28;20052;-65
2021/09/23 01:51:14;;;;;;;57.05;35.40;;;12.70;99.90;;;;;;5092517;28;20044;-64
2021/09/23 01:53:40;;;;;;;58.63;38.55;;;12.60;99.90;;;;;;5093641;28;20041;-64
2021/09/23 01:56:05;;;;;;;59.67;37.10;;;12.60;99.90;;;;;;5092708;28;20047;-64
2021/09/23 01:58:31;;;;;;;58.63;36.40;;;12.60;99.90;;;;;;5097970;28;20055;-64
2021/09/23 02:00:56;;;;;;;66.75;38.25;;;12.50;99.90;;;;;;5087575;28;20048;-64
2021/09/23 02:03:25;;;;;;;62.30;40.03;;;12.60;99.90;;;;;;5086044;28;20032;-64
2021/09/23 02:05:50;;;;;;;62.05;37.75;;;12.60;99.90;;;;;;5100858;28;20044;-65
2021/09/23 02:08:16;;;;;;;67.80;40.15;;;12.60;99.90;;;;;;5096292;28;20167;-66
2021/09/23 02:10:42;;;;;;;60.42;38.50;;;12.50;99.90;;;;;;5100312;28;20095;-65
2021/09/23 02:13:08;;;;;;;64.53;38.38;;;12.50;99.90;;;;;;5085697;28;20045;-67
2021/09/23 02:15:33;;;;;;;65.43;40.55;;;12.50;99.90;;;;;;5093193;28;20164;-65
2021/09/23 02:17:59;;;;;;;69.75;41.85;;;12.50;99.90;;;;;;5087733;28;20036;-65
2021/09/23 02:20:25;;;;;;;71.97;41.05;;;12.50;99.90;;;;;;5085275;28;20048;-66
2021/09/23 02:22:51;;;;;;;66.57;41.80;;;12.50;99.90;;;;;;5091690;28;20062;-66
2021/09/23 02:25:17;;;;;;;71.78;42.38;;;12.50;99.90;;;;;;5100647;28;20625;-66
2021/09/23 02:27:42;;;;;;;64.72;40.40;;;12.60;99.90;;;;;;5091679;28;20194;-66
2021/09/23 02:30:09;;;;;;;68.03;42.75;;;12.70;99.90;;;;;;5090615;28;20066;-66
2021/09/23 02:32:35;;;;;;;60.50;36.25;;;12.60;99.90;;;;;;5085148;28;20052;-66
2021/09/23 02:35:01;;;;;;;64.70;40.83;;;12.80;99.90;;;;;;5093004;28;20070;-66
2021/09/23 02:37:27;;;;;;;66.57;41.28;;;12.70;99.90;;;;;;5103762;28;20132;-66
2021/09/23 02:39:53;;;;;;;66.15;40.83;;;12.70;99.90;;;;;;5073008;28;20040;-66
2021/09/23 02:42:19;;;;;;;67.65;42.10;;;12.60;99.90;;;;;;5098616;28;20047;-65
2021/09/23 02:44:45;;;;;;;67.72;39.80;;;12.70;99.90;;;;;;5087056;28;20044;-66
2021/09/23 02:47:11;;;;;;;66.50;40.13;;;12.70;99.90;;;;;;5087465;28;20085;-66
2021/09/23 02:49:36;;;;;;;69.07;41.42;;;12.70;99.90;;;;;;5092285;28;20044;-66
2021/09/23 02:52:02;;;;;;;69.13;39.42;;;12.60;99.90;;;;;;5090443;28;20060;-66
2021/09/23 02:54:28;;;;;;;65.80;36.95;;;12.70;99.90;;;;;;5091004;28;20056;-66
2021/09/23 02:56:53;;;;;;;56.65;36.30;;;12.60;99.90;;;;;;5067493;28;20076;-66
2021/09/23 02:59:19;;;;;;;67.35;41.17;;;12.60;99.90;;;;;;5066469;28;20062;-65
2021/09/23 03:01:45;;;;;;;66.30;38.88;;;12.60;99.90;;;;;;5084578;28;20049;-66
2021/09/23 03:04:11;;;;;;;66.45;38.75;;;12.60;99.90;;;;;;5089745;28;20523;-65
2021/09/23 03:06:37;;;;;;;67.50;41.17;;;12.50;99.90;;;;;;5099988;28;20063;-66
2021/09/23 03:09:03;;;;;;;74.68;43.50;;;12.50;99.90;;;;;;5092933;28;20040;-66
2021/09/23 03:11:28;;;;;;;66.65;40.22;;;12.60;99.90;;;;;;5100248;28;20101;-66
2021/09/23 03:13:54;;;;;;;73.57;41.95;;;12.50;99.90;;;;;;5093235;28;20437;-66
2021/09/23 03:16:20;;;;;;;67.47;42.40;;;12.50;99.90;;;;;;5092218;28;20032;-66
2021/09/23 03:18:46;;;;;;;67.28;41.40;;;12.50;99.90;;;;;;5095141;28;20047;-66
2021/09/23 03:21:13;;;;;;;71.80;44.13;;;12.60;99.90;;;;;;5085282;28;20055;-66
2021/09/23 03:23:39;;;;;;;75.55;43.53;;;12.40;99.90;;;;;;5085084;28;20044;-66
2021/09/23 03:26:05;;;;;;;70.70;41.28;;;12.40;99.90;;;;;;5094664;28;20071;-66
2021/09/23 03:28:33;;;;;;;72.68;44.15;;;12.50;99.90;;;;;;5084661;28;20529;-66
2021/09/23 03:30:59;;;;;;;68.13;41.90;;;12.50;99.90;;;;;;5084177;28;20127;-66
2021/09/23 03:33:26;;;;;;;75.32;42.85;;;12.50;99.90;;;;;;5088370;28;20055;-66
2021/09/23 03:35:51;;;;;;;69.60;40.88;;;12.50;99.90;;;;;;5089248;28;20041;-66
2021/09/23 03:38:17;;;;;;;71.63;42.88;;;12.60;99.90;;;;;;5094933;28;20041;-66
2021/09/23 03:40:45;;;;;;;76.70;45.10;;;12.60;99.90;;;;;;5089307;28;20040;-66
2021/09/23 03:43:14;;;;;;;;;;;12.60;99.90;;;;;;5085854;28;21933;-66
2021/09/23 03:45:41;;;;;;;76.28;43.67;;;12.70;99.90;;;;;;5096425;28;19920;-65
2021/09/23 03:48:06;;;;;;;75.35;44.92;;;12.70;99.90;;;;;;5094164;28;20042;-66
2021/09/23 03:50:32;;;;;;;73.72;43.83;;;12.60;99.90;;;;;;5087596;28;20075;-66
2021/09/23 03:52:58;;;;;;;75.40;43.80;;;12.70;99.90;;;;;;5100787;28;20079;-66
2021/09/23 03:55:23;;;;;;;78.07;44.17;;;12.70;99.90;;;;;;5084798;28;20047;-66
2021/09/23 03:57:49;;;;;;;76.35;43.65;;;12.70;99.90;;;;;;5093589;28;20516;-66
2021/09/23 04:00:17;;;;;;;78.85;44.50;;;12.80;99.90;;;;;;5069774;28;20044;-66
2021/09/23 04:02:43;;;;;;;76.32;43.63;;;12.90;99.90;;;;;;5093475;28;20094;-66
2021/09/23 04:05:09;;;;;;;74.00;43.00;;;12.90;99.90;;;;;;5102796;28;20044;-66
2021/09/23 04:07:35;;;;;;;84.22;46.90;;;12.90;99.90;;;;;;5089960;28;20036;-66
2021/09/23 04:10:01;;;;;;;78.10;47.50;;;12.90;99.90;;;;;;5100597;28;20036;-66
2021/09/23 04:12:26;;;;;;;81.90;45.67;;;12.90;99.90;;;;;;5104350;28;20056;-65
2021/09/23 04:14:52;;;;;;;82.82;45.25;;;12.90;99.90;;;;;;5106075;28;20423;-66
2021/09/23 04:17:19;;;;;;;81.53;45.05;;;12.90;99.90;;;;;;5105923;28;20048;-66
2021/09/23 04:19:45;;;;;;;87.93;46.40;;;12.90;99.90;;;;;;5094123;28;20074;-66
2021/09/23 04:22:11;;;;;;;82.07;46.25;;;13.00;99.90;;;;;;5098759;28;20488;-66
2021/09/23 04:24:37;;;;;;;80.53;45.10;;;13.00;99.90;;;;;;5099711;28;20060;-66
2021/09/23 04:27:03;;;;;;;81.45;45.83;;;12.90;99.90;;;;;;5093171;28;20073;-66
2021/09/23 04:29:29;;;;;;;83.60;46.55;;;13.00;99.90;;;;;;5102787;28;20189;-66
2021/09/23 04:31:55;;;;;;;107.95;47.00;;;13.10;99.90;;;;;;5103592;28;20048;-66
2021/09/23 04:34:21;;;;;;;91.15;48.90;;;13.00;99.90;;;;;;5102180;28;20535;-66
2021/09/23 04:36:47;;;;;;;88.75;50.55;;;13.00;99.90;;;;;;5101716;28;20037;-66
2021/09/23 04:39:13;;;;;;;94.22;48.22;;;13.10;99.90;;;;;;5089414;28;20091;-66
2021/09/23 04:41:39;;;;;;;92.75;48.83;;;13.10;99.90;;;;;;5100396;28;20116;-66
2021/09/23 04:44:05;;;;;;;90.93;49.88;;;13.10;99.90;;;;;;5101010;28;20415;-66
2021/09/23 04:46:30;;;;;;;91.53;50.78;;;13.30;99.90;;;;;;5102781;28;20040;-66
2021/09/23 04:48:56;;;;;;;90.65;49.88;;;13.40;99.90;;;;;;5099341;28;20051;-66
2021/09/23 04:51:23;;;;;;;95.00;48.38;;;13.40;99.90;;;;;;5098829;28;20056;-66
2021/09/23 04:53:49;;;;;;;78.95;45.35;;;13.50;99.90;;;;;;5105248;28;20051;-66
2021/09/23 04:56:15;;;;;;;85.03;46.75;;;13.60;99.90;;;;;;5096001;28;20048;-66
2021/09/23 04:58:41;;;;;;;83.55;44.20;;;13.80;99.90;;;;;;5066129;28;20040;-66
2021/09/23 05:01:06;;;;;;;90.55;46.17;;;13.70;99.90;;;;;;5097030;28;20155;-66
2021/09/23 05:03:32;;;;;;;82.85;43.70;;;13.80;99.90;;;;;;5097000;28;20048;-66
2021/09/23 05:05:58;;;;;;;75.57;42.97;;;13.80;99.90;;;;;;5096864;28;20078;-66
2021/09/23 05:08:24;;;;;;;83.45;46.65;;;13.90;99.90;;;;;;5100126;28;20064;-66
2021/09/23 05:10:50;;;;;;;80.90;43.80;;;13.80;99.90;;;;;;5094202;28;20040;-66
2021/09/23 05:13:17;;;;;;;80.35;44.30;;;13.80;99.90;;;;;;5100326;28;20267;-66
2021/09/23 05:15:43;;;;;;;81.75;42.83;;;13.80;99.90;;;;;;5090168;28;20044;-65
2021/09/23 05:18:09;;;;;;;82.45;44.50;;;13.80;99.90;;;;;;5103068;28;20132;-65
2021/09/23 05:20:36;;;;;;;85.63;45.73;;;13.80;99.90;;;;;;5095901;28;20467;-65
2021/09/23 05:23:02;;;;;;;85.72;45.92;;;13.80;99.90;;;;;;5101818;28;20032;-65
2021/09/23 05:25:27;;;;;;;87.65;46.05;;;13.70;99.90;;;;;;5092058;28;20471;-65
2021/09/23 05:27:54;;;;;;;82.65;46.80;;;13.70;99.90;;;;;;5099061;28;20040;-65
2021/09/23 05:30:20;;;;;;;83.22;46.78;;;13.70;99.90;;;;;;5093303;28;20044;-65
2021/09/23 05:32:46;;;;;;;91.68;47.92;;;13.60;99.90;;;;;;5091102;28;20095;-65
2021/09/23 05:35:12;;;;;;;80.57;46.33;;;13.70;99.90;;;;;;5096410;28;20056;-66
2021/09/23 05:37:38;;;;;;;88.18;46.92;;;13.60;99.90;;;;;;5095855;28;20043;-65
2021/09/23 05:40:06;;;;;;;95.47;49.85;;;13.50;99.90;;;;;;5099928;28;20130;-66
2021/09/23 05:42:31;;;;;;;101.45;51.42;;;13.50;99.90;;;;;;5104414;28;20067;-65
2021/09/23 05:44:57;;;;;;;87.18;48.72;;;13.50;99.90;;;;;;5104931;28;20051;-65
2021/09/23 05:47:22;;;;;;;97.88;50.40;;;13.50;99.90;;;;;;5104878;28;20464;-65
2021/09/23 05:49:48;;;;;;;102.95;54.85;;;13.50;99.90;;;;;;5092566;28;20087;-65
2021/09/23 05:52:16;;;;;;;98.15;52.55;;;13.40;99.90;;;;;;5100165;28;20036;-66
2021/09/23 05:54:43;;;;;;;97.63;52.50;;;13.50;99.90;;;;;;5096896;28;20044;-65
2021/09/23 05:57:09;;;;;;;110.40;54.72;;;13.40;99.90;;;;;;5103639;28;20463;-65
2021/09/23 05:59:34;;;;;;;91.18;46.35;;;13.50;99.90;;;;;;5097011;28;20051;-65
2021/09/23 06:02:00;;;;;;;99.20;51.45;;;13.50;99.90;;;;;;5103484;28;20108;-65
2021/09/23 06:04:26;;;;;;;104.25;51.20;;;13.50;99.90;;;;;;5096902;28;20319;-66
2021/09/23 06:06:52;;;;;;;99.78;51.70;;;13.50;99.90;;;;;;5096563;28;20061;-66
2021/09/23 06:09:17;;;;;;;101.20;50.28;;;13.60;99.90;;;;;;5095232;28;20044;-66
2021/09/23 06:11:43;;;;;;;85.15;42.50;;;13.50;99.90;;;;;;5103353;28;20076;-65
2021/09/23 06:14:09;;;;;;;97.55;49.28;;;13.70;99.90;;;;;;5095815;28;20040;-66
2021/09/23 06:16:35;;;;;;;88.57;49.03;;;13.70;99.90;;;;;;5101313;28;20093;-66
2021/09/23 06:19:02;;;;;;;93.32;48.10;;;13.70;99.90;;;;;;5095535;28;20049;-66
2021/09/23 06:21:28;;;;;;;92.10;48.45;;;13.70;99.90;;;;;;5102404;28;20055;-66
2021/09/23 06:23:54;;;;;;;85.28;45.67;;;13.70;99.90;;;;;;5096574;28;20044;-65
2021/09/23 06:26:22;;;;;;;92.15;48.13;;;13.60;99.90;;;;;;5101129;28;20051;-66
2021/09/23 06:28:48;;;;;;;;;;;13.70;99.90;;;;;;5097883;28;20078;-65
2021/09/23 06:31:14;;;;;;;96.22;48.90;;;13.70;99.90;;;;;;5098533;28;19920;-65
2021/09/23 06:33:40;;;;;;;87.85;44.60;;;13.70;99.90;;;;;;5099287;28;20074;-66
2021/09/23 06:36:06;;;;;;;93.03;48.35;;;13.60;99.90;;;;;;5099020;28;20040;-65
2021/09/23 06:38:32;;;;;;;92.78;47.53;;;13.70;99.90;;;;;;5097836;28;20039;-66
2021/09/23 06:40:58;;;;;;;88.45;48.88;;;13.70;99.90;;;;;;5098371;28;20107;-66
2021/09/23 06:43:24;;;;;;;85.97;48.13;;;13.70;99.90;;;;;;5080606;28;20357;-66
2021/09/23 06:45:49;;;;;;;90.07;47.90;;;13.80;99.90;;;;;;5103309;28;20066;-65
2021/09/23 06:48:15;;;;;;;89.15;50.00;;;13.80;99.90;;;;;;5102894;28;20503;-66
2021/09/23 06:50:41;;;;;;;88.25;47.70;;;13.80;99.90;;;;;;5102979;28;20056;-65
2021/09/23 06:53:07;;;;;;;92.63;48.55;;;13.80;99.90;;;;;;5101166;28;20170;-65
2021/09/23 06:55:32;;;;;;;80.72;44.95;;;13.90;99.90;;;;;;5099603;28;20048;-65
2021/09/23 06:57:58;;;;;;;87.60;43.92;;;14.00;99.90;;;;;;5097091;28;20039;-65
2021/09/23 07:00:26;;;;;;;74.38;42.38;;;14.10;99.90;;;;;;5100266;28;20136;-65
2021/09/23 07:02:52;;;;;;;74.22;40.85;;;14.20;99.90;;;;;;5095941;28;20047;-65
2021/09/23 07:05:18;;;;;;;70.15;39.33;;;14.40;99.90;;;;;;5095303;28;20044;-66
2021/09/23 07:07:43;;;;;;;69.05;40.25;;;14.50;99.90;;;;;;5103162;28;20101;-65
2021/09/23 07:10:09;;;;;;;65.68;38.25;;;14.60;99.90;;;;;;5096931;28;20483;-65
2021/09/23 07:12:35;;;;;;;68.88;37.03;;;14.70;99.90;;;;;;5094004;28;20093;-66
2021/09/23 07:15:01;;;;;;;55.20;34.40;;;14.80;99.90;;;;;;5098225;28;20081;-66
2021/09/23 07:17:26;;;;;;;51.22;29.73;;;14.90;99.90;;;;;;5100444;28;20044;-66
2021/09/23 07:19:52;;;;;;;48.88;29.42;;;14.90;99.90;;;;;;5099095;28;20099;-66
2021/09/23 07:22:18;;;;;;;46.17;25.85;;;15.00;99.90;;;;;;5086117;28;20352;-65
2021/09/23 07:24:44;;;;;;;44.17;24.73;;;15.20;99.90;;;;;;5098111;28;20036;-65
2021/09/23 07:27:10;;;;;;;38.92;23.40;;;15.20;99.90;;;;;;5090508;28;20045;-66
2021/09/23 07:29:36;;;;;;;34.72;19.35;;;15.40;99.90;;;;;;5098642;28;20032;-66
2021/09/23 07:32:03;;;;;;;24.15;15.45;;;15.40;99.90;;;;;;5086283;28;20049;-65
2021/09/23 07:34:28;;;;;;;21.80;15.77;;;15.50;99.90;;;;;;5094604;28;20068;-65
2021/09/23 07:36:54;;;;;;;20.05;10.57;;;15.60;99.90;;;;;;5099232;28;20057;-66
2021/09/23 07:39:20;;;;;;;15.40;6.78;;;15.80;99.90;;;;;;5096244;28;20036;-66
2021/09/23 07:41:46;;;;;;;10.60;6.47;;;15.90;99.90;;;;;;5101617;28;20044;-66
2021/09/23 07:44:14;;;;;;;11.23;6.10;;;16.00;99.90;;;;;;5091757;28;20040;-66
2021/09/23 07:46:42;;;;;;;19.70;7.35;;;16.10;99.90;;;;;;5094247;28;20037;-66
2021/09/23 07:49:08;;;;;;;;;;;16.30;99.90;;;;;;5089725;28;20052;-66
2021/09/23 07:51:34;;;;;;;10.82;4.30;;;16.40;99.90;;;;;;5101928;28;19920;-65
2021/09/23 07:54:00;;;;;;;8.15;4.75;;;16.40;99.90;;;;;;5094526;28;20044;-66
2021/09/23 07:56:26;;;;;;;11.20;4.38;;;16.40;99.90;;;;;;5101081;28;20055;-65
2021/09/23 07:58:52;;;;;;;14.30;4.80;;;16.50;99.90;;;;;;5104001;28;20043;-65
2021/09/23 08:01:17;;;;;;;5.70;3.33;;;16.50;99.90;;;;;;5092121;28;20450;-64
2021/09/23 08:03:43;;;;;;;17.60;4.32;;;16.50;99.90;;;;;;5081565;28;20046;-65
2021/09/23 08:06:09;;;;;;;7.82;3.25;;;16.60;99.90;;;;;;5102082;28;20066;-65
2021/09/23 08:08:34;;;;;;;8.93;3.50;;;16.70;99.90;;;;;;5106047;28;20498;-66
2021/09/23 08:11:01;;;;;;;7.93;2.83;;;16.70;99.90;;;;;;5071240;28;20044;-63
2021/09/23 08:13:27;;;;;;;8.55;3.30;;;16.70;99.90;;;;;;5099116;28;20036;-66
2021/09/23 08:15:53;;;;;;;6.53;3.20;;;16.70;99.90;;;;;;5099885;28;20082;-65
2021/09/23 08:18:19;;;;;;;18.10;3.42;;;16.70;99.90;;;;;;5097518;28;20032;-65
2021/09/23 08:20:46;;;;;;;5.67;2.77;;;16.60;99.90;;;;;;5099995;28;20077;-64
2021/09/23 08:23:13;;;;;;;4.75;2.83;;;16.60;99.90;;;;;;5106224;28;20286;-64
2021/09/23 08:25:39;;;;;;;10.48;3.00;;;16.60;99.90;;;;;;5103793;28;20115;-63
2021/09/23 08:28:04;;;;;;;8.93;3.30;;;16.60;99.90;;;;;;5099325;28;20490;-64
2021/09/23 08:30:30;;;;;;;7.03;3.03;;;16.60;99.90;;;;;;5101762;28;20097;-63
2021/09/23 08:32:56;;;;;;;4.90;2.95;;;16.70;99.90;;;;;;5101691;28;20071;-64
2021/09/23 08:35:23;;;;;;;8.57;3.00;;;16.80;99.90;;;;;;5105086;28;20050;-64
2021/09/23 08:37:49;;;;;;;9.32;3.45;;;16.80;99.90;;;;;;5105881;28;20048;-65
2021/09/23 08:40:15;;;;;;;6.95;2.92;;;16.90;99.90;;;;;;5102764;28;20095;-65
2021/09/23 08:42:43;;;;;;;7.82;2.60;;;17.00;99.90;;;;;;5099770;28;20040;-65
2021/09/23 08:45:10;;;;;;;13.63;3.30;;;17.00;99.90;;;;;;5106381;28;20069;-65
2021/09/23 08:47:36;;;;;;;;;;;17.10;99.90;;;;;;5106631;28;20145;-65
2021/09/23 08:50:04;;;;;;;8.40;3.13;;;17.10;99.90;;;;;;5099865;28;19920;-66
2021/09/23 08:52:30;;;;;;;6.43;2.85;;;17.20;99.90;;;;;;5102033;28;20146;-66
2021/09/23 08:54:57;;;;;;;6.75;2.72;;;17.30;99.90;;;;;;5104046;28;20502;-66
2021/09/23 08:57:23;;;;;;;5.13;2.53;;;17.30;99.90;;;;;;5095794;28;20044;-66
2021/09/23 08:59:49;;;;;;;7.30;2.33;;;17.20;99.90;;;;;;5102869;28;20040;-67
2021/09/23 09:02:26;;;;;;;14.00;2.92;;;17.30;99.90;;;;;;5105302;28;20043;-65
2021/09/23 09:04:56;;;;;;;13.77;2.72;;;17.30;99.90;;;;;;5103755;28;20549;-65
2021/09/23 09:07:28;;;;;;;7.72;2.45;;;17.30;99.90;;;;;;5105011;28;20126;-65
2021/09/23 09:10:06;;;;;;;10.07;2.22;;;17.30;99.90;;;;;;5101797;28;20104;-65
2021/09/23 09:12:33;;;;;;;11.15;2.63;;;17.30;99.90;;;;;;5096584;28;20053;-63
2021/09/23 09:14:59;;;;;;;7.05;2.25;;;17.40;99.90;;;;;;5098035;28;20491;-65
2021/09/23 09:17:25;;;;;;;9.27;2.53;;;17.40;99.90;;;;;;5102451;28;20044;-65
2021/09/23 09:19:54;;;;;;;13.90;1.90;;;17.40;99.90;;;;;;5099444;28;20044;-62
2021/09/23 09:22:24;;;;;;;9.95;2.17;;;17.50;99.90;;;;;;5094498;28;20044;-63
2021/09/23 09:24:56;;;;;;;5.00;1.83;;;17.40;99.90;;;;;;5097566;28;20044;-65
2021/09/23 09:27:26;;;;;;;8.35;2.20;;;17.50;99.90;;;;;;5100295;28;20573;-65
2021/09/23 09:30:00;;;;;;;9.95;2.50;;;17.60;99.90;;;;;;5098804;28;20173;-65
2021/09/23 09:32:50;;;;;;;7.60;2.03;;;17.50;99.90;;;;;;5100041;28;20044;-65
2021/09/23 09:35:19;;;;;;;9.80;2.70;;;17.60;99.90;;;;;;5093489;28;20052;-63
2021/09/23 09:37:48;;;;;;;11.02;2.65;;;17.70;99.90;;;;;;5106321;28;20036;-65
2021/09/23 09:40:18;;;;;;;9.88;2.45;;;17.70;99.90;;;;;;5097142;28;20055;-64
2021/09/23 09:42:46;;;;;;;8.20;2.33;;;17.70;99.90;;;;;;5102270;28;20099;-63
2021/09/23 09:45:26;;;;;;;6.28;2.10;;;17.70;99.90;;;;;;5095343;28;20074;-68
2021/09/23 09:47:53;;;;;;;17.48;2.97;;;17.80;99.90;;;;;;5095578;28;20104;-67
2021/09/23 09:50:32;;;;;;;14.68;2.25;;;17.70;99.90;;;;;;5095907;28;20047;-71
2021/09/23 09:53:03;;;;;;;9.23;2.10;;;17.60;99.90;;;;;;5084722;28;20047;-67
2021/09/23 09:55:32;;;;;;;11.07;2.13;;;17.60;99.90;;;;;;5078997;28;20098;-66
2021/09/23 09:57:59;;;;;;;8.30;2.55;;;17.50;99.90;;;;;;5099971;28;20046;-68
2021/09/23 10:00:27;;;;;;;5.97;2.53;;;17.50;99.90;;;;;;5098719;28;20377;-69
2021/09/23 10:02:53;;;;;;;6.97;1.80;;;17.40;99.90;;;;;;5102118;28;20054;-67
2021/09/23 10:05:21;;;;;;;11.48;2.67;;;17.40;99.90;;;;;;5084934;28;20047;-70
2021/09/23 10:07:49;;;;;;;8.23;2.25;;;17.40;99.90;;;;;;5099836;28;20576;-69
2021/09/23 10:10:17;;;;;;;12.50;2.75;;;17.40;99.90;;;;;;5099966;28;20058;-67
2021/09/23 10:12:44;;;;;;;7.93;2.63;;;17.40;99.90;;;;;;5098872;28;20043;-65
2021/09/23 10:15:14;;;;;;;14.55;2.90;;;17.40;99.90;;;;;;5097696;28;20048;-65
2021/09/23 10:17:45;;;;;;;7.40;1.85;;;17.40;99.90;;;;;;5099401;28;20036;-66
2021/09/23 10:20:13;;;;;;;9.18;2.42;;;17.40;99.90;;;;;;5094298;28;20036;-66
2021/09/23 10:22:40;;;;;;;10.93;2.53;;;17.40;99.90;;;;;;5079406;28;20086;-65
2021/09/23 10:25:09;;;;;;;14.10;2.42;;;17.30;99.90;;;;;;5098808;28;20052;-69
2021/09/23 10:30:21;;;;;;;9.88;2.50;;;17.20;99.90;;;;;;5083031;28;20530;-68
2021/09/23 10:32:47;;;;;;;7.60;2.13;;;17.10;99.90;;;;;;5083377;28;20271;-68
2021/09/23 10:35:14;;;;;;;7.28;2.47;;;17.10;99.90;;;;;;5101686;28;20044;-67
2021/09/23 10:37:42;;;;;;;14.23;2.20;;;17.10;99.90;;;;;;5078611;28;20032;-68
2021/09/23 10:40:11;;;;;;;8.82;2.13;;;17.10;99.90;;;;;;5098718;28;20043;-64
2021/09/23 10:42:38;;;;;;;10.48;2.15;;;17.10;99.90;;;;;;5085438;28;20052;-70
2021/09/23 10:45:05;;;;;;;13.90;2.88;;;17.20;99.90;;;;;;5103567;28;20183;-68
2021/09/23 10:47:33;;;;;;;15.82;2.75;;;17.10;99.90;;;;;;5097239;28;20051;-66
2021/09/23 10:50:04;;;;;;;16.40;2.90;;;17.10;99.90;;;;;;5100987;28;20059;-78
2021/09/23 10:52:34;;;;;;;14.38;3.42;;;17.00;99.90;;;;;;5100709;28;20082;-73
2021/09/23 10:55:01;;;;;;;13.80;2.97;;;16.90;99.90;;;;;;5096081;28;20070;-73
2021/09/23 10:57:28;;;;;;;13.52;2.33;;;16.70;99.90;;;;;;5098714;28;20051;-67
2021/09/23 10:59:55;;;;;;;17.52;4.40;;;16.60;99.90;;;;;;5099602;28;20089;-66
2021/09/23 11:02:26;;;;;;;12.25;4.22;;;16.60;99.90;;;;;;5100261;28;20074;-67
2021/09/23 11:04:54;;;;;;;13.52;3.75;;;16.50;99.90;;;;;;5092427;28;20036;-69
2021/09/23 11:07:21;;;;;;;17.60;3.03;;;16.50;99.90;;;;;;5100931;28;20051;-66
2021/09/23 11:10:12;;;;;;;23.23;4.22;;;16.50;99.90;;;;;;5097484;28;20123;-72
2021/09/23 11:12:41;;;;;;;16.45;3.50;;;16.50;99.90;;;;;;5096506;28;20491;-69
2021/09/23 11:15:09;;;;;;;12.73;3.10;;;16.50;99.90;;;;;;5096463;28;20044;-68
2021/09/23 11:17:37;;;;;;;21.27;2.97;;;16.70;99.90;;;;;;5099962;28;20046;-69
2021/09/23 11:20:05;;;;;;;15.20;3.20;;;16.90;99.90;;;;;;5102622;28;20055;-70
2021/09/23 11:22:43;;;;;;;9.50;2.90;;;16.90;99.90;;;;;;5099163;28;20092;-67
2021/09/23 11:25:17;;;;;;;20.08;3.83;;;17.00;99.90;;;;;;5102810;28;20048;-67
2021/09/23 11:27:46;;;;;;;12.07;2.38;;;17.00;99.90;;;;;;5096084;28;20044;-64
2021/09/23 11:30:21;;;;;;;20.45;2.92;;;17.10;99.90;;;;;;5094698;28;20040;-74
2021/09/23 11:32:49;;;;;;;13.38;2.80;;;17.10;99.90;;;;;;5081514;28;20051;-64
2021/09/23 11:35:17;;;;;;;14.68;3.35;;;17.10;99.90;;;;;;5100113;28;20561;-67
2021/09/23 11:37:43;;;;;;;8.13;3.40;;;17.20;99.90;;;;;;5104081;28;20040;-66
2021/09/23 11:40:10;;;;;;;13.70;2.80;;;17.30;99.90;;;;;;5099534;28;20381;-64
2021/09/23 11:42:39;;;;;;;15.27;2.63;;;17.40;99.90;;;;;;5093642;28;20106;-65
2021/09/23 11:45:11;;;;;;;12.95;2.40;;;17.50;99.90;;;;;;5075890;28;20053;-72
2021/09/23 11:47:54;;;;;;;6.43;2.33;;;17.50;99.90;;;;;;5100285;28;20066;-67
2021/09/23 11:50:39;;;;;;;6.43;2.05;;;17.50;99.90;;;;;;5102475;28;20032;-67
2021/09/23 11:53:12;;;;;;;4.72;2.15;;;17.50;99.90;;;;;;5099969;28;20101;-65
2021/09/23 11:55:43;;;;;;;9.40;2.70;;;17.50;99.90;;;;;;5102562;28;20079;-66
2021/09/23 11:58:14;;;;;;;7.20;2.15;;;17.50;99.90;;;;;;5096136;28;20032;-65
2021/09/23 12:00:48;;;;;;;20.52;2.67;;;17.60;99.90;;;;;;5101573;28;20044;-64
2021/09/23 12:03:15;;;;;;;7.60;2.13;;;17.70;99.90;;;;;;5101076;28;20055;-64
2021/09/23 12:05:42;;;;;;;10.00;2.17;;;17.80;99.90;;;;;;5100652;28;20044;-64
2021/09/23 12:08:17;;;;;;;10.57;2.22;;;18.00;99.90;;;;;;5093997;28;20051;-65
2021/09/23 12:10:48;;;;;;;10.90;2.15;;;18.20;99.90;;;;;;5099994;28;20044;-64
2021/09/23 12:13:22;;;;;;;9.25;2.65;;;18.30;99.90;;;;;;5099916;28;20058;-64
2021/09/23 12:15:56;;;;;;;11.88;2.30;;;18.40;99.90;;;;;;5099681;28;20067;-65
2021/09/23 12:18:24;;;;;;;11.50;2.40;;;18.50;99.90;;;;;;5101714;28;20051;-64
2021/09/23 12:20:51;;;;;;;8.63;1.98;;;18.60;99.90;;;;;;5099205;28;20126;-64
2021/09/23 12:23:21;;;;;;;7.85;2.28;;;18.60;99.90;;;;;;5081208;28;20078;-64
2021/09/23 12:26:11;;;;;;;12.20;2.42;;;18.80;99.90;;;;;;5077139;28;20058;-63
2021/09/23 12:28:45;;;;;;;5.35;1.90;;;18.80;99.90;;;;;;5092465;28;20122;-63
2021/09/23 12:31:13;;;;;;;7.93;2.03;;;18.80;99.90;;;;;;5096614;28;20095;-64
2021/09/23 12:33:54;;;;;;;9.38;2.00;;;18.60;99.90;;;;;;5095024;28;20133;-65
2021/09/23 12:36:38;;;;;;;13.30;1.95;;;18.60;99.90;;;;;;5093875;28;20048;-70
2021/09/23 12:39:16;;;;;;;7.28;2.28;;;18.50;99.90;;;;;;5101921;28;20314;-77